TGW3304 WMKK-WSSS
Flight info
| Callsign | TGW3304 |
|---|---|
| Flight time | 0h 38m |
| Altitude | 27000 |
| Route | RUSBU1E RUSBU Y511 TOPOR A464 ARAMA DCT TEBUN TEBUN1A |
| Aircraft | E190/M-SDE3GILORVW/S |
Departure
| Time | 2026-05-01 13:41 |
|---|---|
| Airport | Kuala Lumpur International Airport (WMKK) |
Arrival
| Time | 2026-05-01 14:19 |
|---|---|
| Airport | Singapore Changi Airport (WSSS) |
| Time | Latitude | Longitude | Altitude | Speed | Heading |
|---|---|---|---|---|---|
| 2026-05-01 13:19 | 2.74781 | 101.71796 | 75 ft | 0 kts | 146° |
| 2026-05-01 13:33 | 2.74796 | 101.71786 | 72 ft | 2 kts | 147° |
| 2026-05-01 13:33 | 2.74824 | 101.71768 | 70 ft | 2 kts | 149° |
| 2026-05-01 13:34 | 2.74853 | 101.71753 | 64 ft | 2 kts | 158° |
| 2026-05-01 13:34 | 2.74884 | 101.71750 | 68 ft | 2 kts | 225° |
| 2026-05-01 13:35 | 2.74889 | 101.71755 | 69 ft | 0 kts | 232° |
| 2026-05-01 13:35 | 2.74884 | 101.71749 | 67 ft | 3 kts | 233° |
| 2026-05-01 13:36 | 2.74864 | 101.71722 | 70 ft | 7 kts | 233° |
| 2026-05-01 13:36 | 2.74828 | 101.71673 | 73 ft | 11 kts | 235° |
| 2026-05-01 13:36 | 2.74704 | 101.71600 | 68 ft | 13 kts | 150° |
| 2026-05-01 13:37 | 2.74624 | 101.71655 | 74 ft | 15 kts | 146° |
| 2026-05-01 13:37 | 2.74542 | 101.71731 | 72 ft | 17 kts | 103° |
| 2026-05-01 13:37 | 2.74592 | 101.71838 | 75 ft | 18 kts | 57° |
| 2026-05-01 13:37 | 2.74668 | 101.71948 | 74 ft | 20 kts | 54° |
| 2026-05-01 13:38 | 2.74772 | 101.72104 | 77 ft | 0 kts | 56° |
| 2026-05-01 13:39 | 2.74778 | 101.72112 | 77 ft | 3 kts | 56° |
| 2026-05-01 13:39 | 2.74797 | 101.72141 | 74 ft | 7 kts | 56° |
| 2026-05-01 13:39 | 2.74837 | 101.72180 | 77 ft | 10 kts | 26° |
| 2026-05-01 13:39 | 2.74890 | 101.72167 | 67 ft | 0 kts | 327° |
| 2026-05-01 13:40 | 2.74906 | 101.72157 | 76 ft | 21 kts | 326° |
| 2026-05-01 13:40 | 2.75258 | 101.71922 | 67 ft | 100 kts | 326° |
| 2026-05-01 13:40 | 2.76022 | 101.71414 | 120 ft | 160 kts | 327° |
| 2026-05-01 13:40 | 2.77058 | 101.70753 | 603 ft | 195 kts | 329° |
| 2026-05-01 13:41 | 2.78317 | 101.70010 | 1281 ft | 223 kts | 329° |
| 2026-05-01 13:41 | 2.79692 | 101.69118 | 2186 ft | 243 kts | 327° |
| 2026-05-01 13:41 | 2.81221 | 101.68311 | 3274 ft | 254 kts | 342° |
| 2026-05-01 13:41 | 2.83043 | 101.68225 | 4103 ft | 269 kts | 19° |
| 2026-05-01 13:42 | 2.84664 | 101.69215 | 4832 ft | 281 kts | 48° |
| 2026-05-01 13:42 | 2.85648 | 101.70869 | 6107 ft | 278 kts | 70° |
| 2026-05-01 13:42 | 2.85926 | 101.72762 | 7365 ft | 277 kts | 95° |
| 2026-05-01 13:42 | 2.85308 | 101.74596 | 8448 ft | 282 kts | 120° |
| 2026-05-01 13:43 | 2.84241 | 101.76242 | 9696 ft | 282 kts | 123° |
| 2026-05-01 13:43 | 2.83092 | 101.77882 | 10498 ft | 300 kts | 122° |
| 2026-05-01 13:43 | 2.81945 | 101.79678 | 11275 ft | 314 kts | 121° |
| 2026-05-01 13:43 | 2.80749 | 101.81565 | 12057 ft | 328 kts | 121° |
| 2026-05-01 13:44 | 2.79488 | 101.83518 | 12841 ft | 341 kts | 122° |
| 2026-05-01 13:44 | 2.78125 | 101.85501 | 13739 ft | 349 kts | 124° |
| 2026-05-01 13:44 | 2.76634 | 101.87453 | 14579 ft | 357 kts | 127° |
| 2026-05-01 13:44 | 2.75103 | 101.89430 | 15520 ft | 362 kts | 126° |
| 2026-05-01 13:45 | 2.73564 | 101.91440 | 16488 ft | 366 kts | 126° |
| 2026-05-01 13:45 | 2.71993 | 101.93470 | 17384 ft | 371 kts | 126° |
| 2026-05-01 13:45 | 2.70382 | 101.95515 | 18218 ft | 377 kts | 127° |
| 2026-05-01 13:45 | 2.68708 | 101.97555 | 18930 ft | 381 kts | 128° |
| 2026-05-01 13:46 | 2.66984 | 101.99585 | 19602 ft | 386 kts | 129° |
| 2026-05-01 13:46 | 2.65205 | 102.01615 | 20268 ft | 390 kts | 130° |
| 2026-05-01 13:46 | 2.63373 | 102.03637 | 20927 ft | 394 kts | 131° |
| 2026-05-01 13:46 | 2.61488 | 102.05648 | 21554 ft | 398 kts | 132° |
| 2026-05-01 13:47 | 2.59557 | 102.07651 | 22175 ft | 402 kts | 133° |
| 2026-05-01 13:47 | 2.57633 | 102.09694 | 22743 ft | 405 kts | 129° |
| 2026-05-01 13:47 | 2.55673 | 102.11754 | 23012 ft | 416 kts | 135° |
| 2026-05-01 13:47 | 2.53444 | 102.13617 | 23010 ft | 420 kts | 140° |
| 2026-05-01 13:48 | 2.51109 | 102.15391 | 22993 ft | 423 kts | 141° |
| 2026-05-01 13:48 | 2.48748 | 102.17144 | 22896 ft | 422 kts | 142° |
| 2026-05-01 13:48 | 2.46380 | 102.18885 | 22902 ft | 423 kts | 142° |
| 2026-05-01 13:48 | 2.44811 | 102.20036 | 22904 ft | 423 kts | 142° |
| 2026-05-01 13:49 | 2.42438 | 102.21776 | 22915 ft | 423 kts | 142° |
| 2026-05-01 13:49 | 2.40064 | 102.23514 | 22912 ft | 423 kts | 142° |
| 2026-05-01 13:49 | 2.37686 | 102.25255 | 22908 ft | 423 kts | 142° |
| 2026-05-01 13:49 | 2.34543 | 102.27556 | 22911 ft | 423 kts | 142° |
| 2026-05-01 13:50 | 2.32169 | 102.29294 | 22916 ft | 423 kts | 142° |
| 2026-05-01 13:50 | 2.30563 | 102.30470 | 22920 ft | 423 kts | 142° |
| 2026-05-01 13:50 | 2.27417 | 102.32773 | 22923 ft | 423 kts | 142° |
| 2026-05-01 13:50 | 2.25814 | 102.33946 | 22918 ft | 423 kts | 142° |
| 2026-05-01 13:51 | 2.23437 | 102.35686 | 22922 ft | 423 kts | 142° |
| 2026-05-01 13:51 | 2.21064 | 102.37423 | 22917 ft | 423 kts | 142° |
| 2026-05-01 13:51 | 2.18688 | 102.39161 | 22918 ft | 423 kts | 142° |
| 2026-05-01 13:51 | 2.16312 | 102.40900 | 22922 ft | 423 kts | 142° |
| 2026-05-01 13:52 | 2.13936 | 102.42640 | 22920 ft | 423 kts | 142° |
| 2026-05-01 13:52 | 2.11560 | 102.44378 | 22919 ft | 423 kts | 142° |
| 2026-05-01 13:52 | 2.09184 | 102.46117 | 22927 ft | 423 kts | 142° |
| 2026-05-01 13:52 | 2.06811 | 102.47853 | 22924 ft | 423 kts | 142° |
| 2026-05-01 13:53 | 2.04436 | 102.49591 | 22917 ft | 423 kts | 142° |
| 2026-05-01 13:53 | 2.00342 | 102.53679 | 22950 ft | 420 kts | 126° |
| 2026-05-01 13:53 | 1.98597 | 102.56020 | 22925 ft | 420 kts | 125° |
| 2026-05-01 13:54 | 1.96849 | 102.58358 | 22927 ft | 420 kts | 126° |
| 2026-05-01 13:54 | 1.95072 | 102.60727 | 22928 ft | 420 kts | 126° |
| 2026-05-01 13:54 | 1.93341 | 102.63030 | 22924 ft | 420 kts | 126° |
| 2026-05-01 13:54 | 1.91588 | 102.65363 | 22925 ft | 420 kts | 126° |
| 2026-05-01 13:55 | 1.89832 | 102.67697 | 22924 ft | 420 kts | 126° |
| 2026-05-01 13:55 | 1.88075 | 102.70032 | 22927 ft | 420 kts | 126° |
| 2026-05-01 13:55 | 1.86321 | 102.72363 | 22922 ft | 420 kts | 126° |
| 2026-05-01 13:55 | 1.84563 | 102.74698 | 22922 ft | 420 kts | 126° |
| 2026-05-01 13:56 | 1.82807 | 102.77032 | 22924 ft | 420 kts | 126° |
| 2026-05-01 13:56 | 1.81048 | 102.79368 | 22921 ft | 420 kts | 126° |
| 2026-05-01 13:56 | 1.79292 | 102.81701 | 22920 ft | 420 kts | 126° |
| 2026-05-01 13:56 | 1.77534 | 102.84037 | 22918 ft | 420 kts | 126° |
| 2026-05-01 13:57 | 1.75777 | 102.86371 | 22918 ft | 420 kts | 126° |
| 2026-05-01 13:57 | 1.74029 | 102.88710 | 22921 ft | 419 kts | 123° |
| 2026-05-01 13:57 | 1.72556 | 102.91223 | 22926 ft | 419 kts | 117° |
| 2026-05-01 13:57 | 1.71186 | 102.93793 | 22922 ft | 419 kts | 117° |
| 2026-05-01 13:58 | 1.69821 | 102.96369 | 22911 ft | 419 kts | 117° |
| 2026-05-01 13:58 | 1.68456 | 102.98942 | 22915 ft | 419 kts | 117° |
| 2026-05-01 13:58 | 1.67089 | 103.01512 | 22912 ft | 419 kts | 117° |
| 2026-05-01 13:58 | 1.65719 | 103.04085 | 22912 ft | 419 kts | 117° |
| 2026-05-01 13:59 | 1.64350 | 103.06655 | 22917 ft | 419 kts | 117° |
| 2026-05-01 13:59 | 1.62968 | 103.09216 | 22917 ft | 419 kts | 120° |
| 2026-05-01 13:59 | 1.61131 | 103.11387 | 22938 ft | 400 kts | 140° |
| 2026-05-01 13:59 | 1.58777 | 103.12724 | 22915 ft | 380 kts | 155° |
| 2026-05-01 14:00 | 1.56361 | 103.13625 | 22873 ft | 361 kts | 158° |
| 2026-05-01 14:00 | 1.54047 | 103.14489 | 22857 ft | 351 kts | 156° |
| 2026-05-01 14:00 | 1.51779 | 103.15384 | 22937 ft | 353 kts | 155° |
| 2026-05-01 14:00 | 1.49489 | 103.16313 | 22920 ft | 356 kts | 155° |
| 2026-05-01 14:01 | 1.47224 | 103.17245 | 22912 ft | 357 kts | 155° |
| 2026-05-01 14:01 | 1.44929 | 103.18197 | 22923 ft | 358 kts | 155° |
| 2026-05-01 14:01 | 1.42632 | 103.19155 | 22925 ft | 358 kts | 155° |
| 2026-05-01 14:01 | 1.40339 | 103.20113 | 22927 ft | 358 kts | 155° |
| 2026-05-01 14:02 | 1.38044 | 103.21072 | 22898 ft | 358 kts | 155° |
| 2026-05-01 14:02 | 1.35725 | 103.22040 | 22558 ft | 360 kts | 155° |
| 2026-05-01 14:02 | 1.33428 | 103.22995 | 22361 ft | 356 kts | 155° |
| 2026-05-01 14:02 | 1.31136 | 103.23954 | 21879 ft | 358 kts | 155° |
| 2026-05-01 14:03 | 1.28842 | 103.24911 | 21387 ft | 356 kts | 155° |
| 2026-05-01 14:03 | 1.26569 | 103.25864 | 20891 ft | 353 kts | 155° |
| 2026-05-01 14:03 | 1.24326 | 103.26811 | 20423 ft | 348 kts | 153° |
| 2026-05-01 14:03 | 1.22228 | 103.27965 | 19980 ft | 341 kts | 146° |
| 2026-05-01 14:04 | 1.20210 | 103.29190 | 19510 ft | 338 kts | 147° |
| 2026-05-01 14:04 | 1.18195 | 103.30386 | 19068 ft | 335 kts | 147° |
| 2026-05-01 14:04 | 1.16196 | 103.31568 | 18627 ft | 333 kts | 147° |
| 2026-05-01 14:04 | 1.14204 | 103.32737 | 18183 ft | 331 kts | 147° |
| 2026-05-01 14:05 | 1.12223 | 103.33889 | 17732 ft | 327 kts | 148° |
| 2026-05-01 14:05 | 1.10266 | 103.35026 | 17313 ft | 324 kts | 148° |
| 2026-05-01 14:05 | 1.08321 | 103.36153 | 16881 ft | 322 kts | 148° |
| 2026-05-01 14:05 | 1.06385 | 103.37273 | 16454 ft | 321 kts | 148° |
| 2026-05-01 14:06 | 1.04455 | 103.38390 | 16034 ft | 320 kts | 148° |
| 2026-05-01 14:06 | 1.02541 | 103.39495 | 15610 ft | 316 kts | 148° |
| 2026-05-01 14:06 | 1.00652 | 103.40587 | 15195 ft | 312 kts | 148° |
| 2026-05-01 14:06 | 0.98812 | 103.41704 | 14777 ft | 307 kts | 140° |
| 2026-05-01 14:07 | 0.97524 | 103.43340 | 14373 ft | 299 kts | 111° |
| 2026-05-01 14:07 | 0.97113 | 103.45341 | 14045 ft | 292 kts | 94° |
| 2026-05-01 14:07 | 0.97051 | 103.47364 | 13609 ft | 291 kts | 91° |
| 2026-05-01 14:08 | 0.96867 | 103.51355 | 12843 ft | 283 kts | 94° |
| 2026-05-01 14:08 | 0.96719 | 103.53283 | 12472 ft | 281 kts | 95° |
| 2026-05-01 14:08 | 0.96559 | 103.55213 | 12104 ft | 278 kts | 95° |
| 2026-05-01 14:08 | 0.96403 | 103.57126 | 11737 ft | 275 kts | 94° |
| 2026-05-01 14:09 | 0.96474 | 103.59024 | 11397 ft | 272 kts | 82° |
| 2026-05-01 14:09 | 0.96816 | 103.60879 | 11026 ft | 271 kts | 80° |
| 2026-05-01 14:09 | 0.97195 | 103.62727 | 10473 ft | 276 kts | 72° |
| 2026-05-01 14:09 | 0.98026 | 103.64476 | 10131 ft | 275 kts | 62° |
| 2026-05-01 14:10 | 0.98967 | 103.66130 | 9773 ft | 274 kts | 62° |
| 2026-05-01 14:10 | 0.99901 | 103.67790 | 9386 ft | 273 kts | 62° |
| 2026-05-01 14:10 | 1.00812 | 103.69436 | 9053 ft | 270 kts | 62° |
| 2026-05-01 14:10 | 1.01711 | 103.71074 | 8691 ft | 268 kts | 62° |
| 2026-05-01 14:11 | 1.02599 | 103.72701 | 8335 ft | 266 kts | 63° |
| 2026-05-01 14:11 | 1.04360 | 103.75938 | 7641 ft | 264 kts | 62° |
| 2026-05-01 14:11 | 1.05233 | 103.77547 | 7289 ft | 263 kts | 63° |
| 2026-05-01 14:12 | 1.06101 | 103.79150 | 6947 ft | 262 kts | 63° |
| 2026-05-01 14:12 | 1.06965 | 103.80748 | 6592 ft | 262 kts | 63° |
| 2026-05-01 14:12 | 1.07831 | 103.82352 | 6239 ft | 261 kts | 63° |
| 2026-05-01 14:12 | 1.08692 | 103.83948 | 5885 ft | 260 kts | 62° |
| 2026-05-01 14:13 | 1.09551 | 103.85538 | 5542 ft | 259 kts | 63° |
| 2026-05-01 14:13 | 1.10116 | 103.86584 | 5323 ft | 258 kts | 61° |
| 2026-05-01 14:13 | 1.11764 | 103.88241 | 4887 ft | 257 kts | 30° |
| 2026-05-01 14:13 | 1.13403 | 103.88942 | 4551 ft | 256 kts | 20° |
| 2026-05-01 14:14 | 1.15090 | 103.89527 | 4180 ft | 256 kts | 20° |
| 2026-05-01 14:14 | 1.16754 | 103.90138 | 3861 ft | 252 kts | 21° |
| 2026-05-01 14:14 | 1.18349 | 103.90766 | 3521 ft | 241 kts | 22° |
| 2026-05-01 14:14 | 1.19873 | 103.91395 | 3178 ft | 233 kts | 24° |
| 2026-05-01 14:15 | 1.21331 | 103.92017 | 2902 ft | 222 kts | 24° |
| 2026-05-01 14:15 | 1.22707 | 103.92607 | 2737 ft | 208 kts | 24° |
| 2026-05-01 14:15 | 1.23995 | 103.93154 | 2576 ft | 193 kts | 23° |
| 2026-05-01 14:15 | 1.25198 | 103.93620 | 2457 ft | 175 kts | 22° |
| 2026-05-01 14:16 | 1.26291 | 103.94071 | 2254 ft | 164 kts | 25° |
| 2026-05-01 14:16 | 1.27294 | 103.94508 | 2052 ft | 151 kts | 24° |
| 2026-05-01 14:16 | 1.28203 | 103.94892 | 1897 ft | 132 kts | 24° |
| 2026-05-01 14:16 | 1.29036 | 103.95267 | 1615 ft | 134 kts | 26° |
| 2026-05-01 14:17 | 1.29901 | 103.95641 | 1175 ft | 136 kts | 23° |
| 2026-05-01 14:17 | 1.30776 | 103.95956 | 837 ft | 127 kts | 24° |
| 2026-05-01 14:17 | 1.31551 | 103.96337 | 751 ft | 127 kts | 26° |
| 2026-05-01 14:17 | 1.32376 | 103.96681 | 629 ft | 131 kts | 23° |
| 2026-05-01 14:18 | 1.33212 | 103.97046 | 419 ft | 130 kts | 22° |
| 2026-05-01 14:18 | 1.34043 | 103.97393 | 255 ft | 130 kts | 22° |
| 2026-05-01 14:18 | 1.34880 | 103.97737 | 90 ft | 129 kts | 22° |
| 2026-05-01 14:18 | 1.35415 | 103.97963 | 31 ft | 117 kts | 24° |
| 2026-05-01 14:19 | 1.36191 | 103.98283 | 25 ft | 59 kts | 28° |
| 2026-05-01 14:19 | 1.36486 | 103.98415 | 27 ft | 41 kts | 22° |
| 2026-05-01 14:19 | 1.36695 | 103.98558 | 24 ft | 32 kts | 49° |
| 2026-05-01 14:19 | 1.36766 | 103.98647 | 23 ft | 1 kts | 52° |
| 2026-05-01 14:20 | 1.36787 | 103.98674 | 23 ft | 10 kts | 52° |
| 2026-05-01 14:20 | 1.36811 | 103.98706 | 23 ft | 0 kts | 52° |
| 2026-05-01 14:21 | 1.36814 | 103.98710 | 23 ft | 2 kts | 52° |
| 2026-05-01 14:21 | 1.36827 | 103.98733 | 23 ft | 5 kts | 66° |
| 2026-05-01 14:21 | 1.36838 | 103.98785 | 23 ft | 10 kts | 95° |
| 2026-05-01 14:22 | 1.36726 | 103.98864 | 23 ft | 14 kts | 111° |
| 2026-05-01 14:22 | 1.36699 | 103.98933 | 23 ft | 0 kts | 112° |